Terminal Aerodrome Forecast
Issued by NWS

Home | Current Version | Previous Version | Text Only | Print | Product List | Glossary On
Versions: 1 2 3 4 5 6 7 8 9 10 11 12 13 14 15 16 17 18 19 20 21 22 23 24 25 26 27 28 29 30
178
FTUS41 KOKX 260245 AAA
TAFTEB
TAF AMD
KTEB 260245Z 2603/2624 02005KT P6SM BKN015 OVC020
     FM260700 05006KT P6SM OVC020
     FM261000 05007KT P6SM SCT025 OVC035
     FM261300 06007KT 6SM -RA OVC025
     FM262000 07008KT 5SM -RA BR SCT008 OVC015=

USA.gov is the U.S. government's official web portal to all federal, state and local government web resources and services.